Time;durP1;ratioP1;P1;durP2;ratioP2;P2;SDS_P1;SDS_P2;PMS_P1;PMS_P2;Temp;Humidity;BMP_temperature;BMP_pressure;BME280_temperature;BME280_humidity;BME280_pressure;Samples;Min_cycle;Max_cycle;Signal;HPM_P1;HPM_P2
2023/03/04 00:00:11;;;;;;;;;;;;;;;18.29;23.81;98177.34;5024406;28;19932;-86
2023/03/04 00:02:37;;;;;;;;;;;;;;;18.21;23.67;98175.72;5028730;28;19924;-86
2023/03/04 00:05:03;;;;;;;;;;;;;;;17.19;24.71;98182.31;5028346;28;19986;-88
2023/03/04 00:07:29;;;;;;;;;;;;;;;17.06;25.35;98186.53;5025566;28;19928;-87
2023/03/04 00:09:56;;;;;;;;;;;;;;;17.08;25.23;98184.19;5027193;28;19925;-87
2023/03/04 00:12:22;;;;;;;;;;;;;;;17.73;24.38;98175.94;5030117;28;19983;-87
2023/03/04 00:14:47;;;;;;;;;;;;;;;16.54;25.88;98181.34;5009495;28;22080;-87
2023/03/04 00:17:14;;;;;;;;;;;;;;;16.73;25.37;98175.59;5025130;28;19925;-88
2023/03/04 00:19:40;;;;;;;;;;;;;;;16.69;25.97;98179.47;5007670;28;19921;-87
2023/03/04 00:22:06;;;;;;;;;;;;;;;17.89;24.29;98172.81;5029982;28;19928;-87
2023/03/04 00:24:32;;;;;;;;;;;;;;;17.27;24.90;98180.34;5030397;28;19921;-87
2023/03/04 00:26:58;;;;;;;;;;;;;;;17.15;25.46;98175.13;5028544;28;19925;-88
2023/03/04 00:29:24;;;;;;;;;;;;;;;18.39;23.54;98155.09;5031792;28;20020;-88
2023/03/04 00:31:50;;;;;;;;;;;;;;;18.75;23.20;98152.41;5028563;28;19929;-88
2023/03/04 00:34:16;;;;;;;;;;;;;;;17.77;24.01;98153.72;5028522;28;20373;-88
2023/03/04 00:36:43;;;;;;;;;;;;;;;15.99;26.66;98147.06;5023762;28;19921;-87
2023/03/04 00:39:11;;;;;;;;;;;;;;;17.93;24.30;98143.88;5022406;28;19921;-88
2023/03/04 00:41:37;;;;;;;;;;;;;;;18.64;23.15;98141.28;5021087;28;19925;-88
2023/03/04 00:44:03;;;;;;;;;;;;;;;18.60;22.91;98132.13;5022562;28;19921;-88
2023/03/04 00:46:29;;;;;;;;;;;;;;;16.97;25.12;98138.13;5030061;28;19928;-87
2023/03/04 00:48:55;;;;;;;;;;;;;;;15.90;26.83;98129.97;5002393;28;20041;-86
2023/03/04 00:51:21;;;;;;;;;;;;;;;17.80;24.76;98127.94;5020170;28;20023;-87
2023/03/04 00:53:47;;;;;;;;;;;;;;;18.98;22.89;98111.06;5025848;28;20308;-87
2023/03/04 00:56:13;;;;;;;;;;;;;;;18.11;24.09;98110.56;5026614;28;19928;-87
2023/03/04 00:58:39;;;;;;;;;;;;;;;16.48;25.68;98119.09;5030051;28;19921;-86
2023/03/04 01:01:06;;;;;;;;;;;;;;;18.10;24.17;98105.44;5029745;28;19943;-87
2023/03/04 01:03:33;;;;;;;;;;;;;;;17.67;24.13;98105.28;5030240;28;19990;-85
2023/03/04 01:05:59;;;;;;;;;;;;;;;16.70;26.34;98109.81;5018312;28;20262;-86
2023/03/04 01:08:25;;;;;;;;;;;;;;;15.99;26.65;98107.50;5032092;28;19921;-86
2023/03/04 01:10:51;;;;;;;;;;;;;;;16.91;25.69;98092.53;5029829;28;20399;-86
2023/03/04 01:13:17;;;;;;;;;;;;;;;18.18;24.45;98088.38;5027155;28;19932;-88
2023/03/04 01:15:44;;;;;;;;;;;;;;;18.87;22.79;98080.50;5024516;28;19921;-88
2023/03/04 01:18:10;;;;;;;;;;;;;;;17.99;23.88;98072.06;5032599;28;19925;-88
2023/03/04 01:20:36;;;;;;;;;;;;;;;19.64;22.21;98062.81;5013160;28;19991;-88
2023/03/04 01:23:02;;;;;;;;;;;;;;;19.29;22.58;98052.59;5022428;28;20377;-88
2023/03/04 01:25:28;;;;;;;;;;;;;;;19.31;22.38;98054.97;5027179;28;19929;-88
2023/03/04 01:27:54;;;;;;;;;;;;;;;18.96;22.98;98055.84;5014689;28;19944;-87
2023/03/04 01:30:20;;;;;;;;;;;;;;;18.24;24.15;98047.09;5026874;28;20376;-87
2023/03/04 01:32:46;;;;;;;;;;;;;;;19.41;22.69;98045.81;5031073;28;19921;-88
2023/03/04 01:35:12;;;;;;;;;;;;;;;20.31;21.86;98042.16;4992688;28;19932;-88
2023/03/04 01:37:39;;;;;;;;;;;;;;;19.53;22.18;98041.78;5023803;28;20514;-88
2023/03/04 01:40:05;;;;;;;;;;;;;;;19.08;22.56;98030.38;5006673;28;19986;-88
2023/03/04 01:42:33;;;;;;;;;;;;;;;20.08;21.54;98034.31;5021933;28;19921;-88
2023/03/04 01:44:59;;;;;;;;;;;;;;;19.82;22.01;98018.94;5024720;28;19929;-88
2023/03/04 01:47:30;;;;;;;;;;;;;;;19.60;22.12;98025.84;5008460;28;19925;-88
2023/03/04 01:49:57;;;;;;;;;;;;;;;19.37;22.35;98024.75;5026852;28;19976;-88
2023/03/04 01:52:24;;;;;;;;;;;;;;;19.90;21.63;98009.38;5028444;28;20404;-88
2023/03/04 01:54:50;;;;;;;;;;;;;;;19.56;21.91;98013.91;5028360;28;19933;-88
2023/03/04 01:57:17;;;;;;;;;;;;;;;18.97;22.62;98014.91;5021346;28;20020;-88
2023/03/04 01:59:44;;;;;;;;;;;;;;;19.68;21.54;98013.47;5026523;28;19925;-88
2023/03/04 02:02:10;;;;;;;;;;;;;;;20.01;21.69;98017.63;5023530;28;20365;-87
2023/03/04 02:04:38;;;;;;;;;;;;;;;19.21;22.38;98003.69;5029313;28;20335;-88
2023/03/04 02:07:04;;;;;;;;;;;;;;;18.92;22.83;98006.97;5027780;28;20381;-88
2023/03/04 02:09:31;;;;;;;;;;;;;;;19.30;22.61;97998.47;5026152;28;19921;-88
2023/03/04 02:11:58;;;;;;;;;;;;;;;17.51;23.80;97995.72;5006637;28;20303;-88
2023/03/04 02:14:24;;;;;;;;;;;;;;;17.78;24.60;98002.59;5025825;28;20001;-88
2023/03/04 02:16:50;;;;;;;;;;;;;;;18.04;24.09;97998.66;5030442;28;20478;-88
2023/03/04 02:19:36;;;;;;;;;;;;;;;18.40;23.19;97989.13;5030231;28;19925;-88
2023/03/04 02:22:03;;;;;;;;;;;;;;;16.46;25.21;97999.53;5012830;28;19921;-88
2023/03/04 02:24:39;;;;;;;;;;;;;;;17.68;24.54;97995.81;5015884;28;19921;-87
2023/03/04 02:27:05;;;;;;;;;;;;;;;18.86;23.05;97987.09;5033445;28;20015;-88
2023/03/04 02:29:31;;;;;;;;;;;;;;;17.68;24.14;97993.06;5025902;28;19948;-88
2023/03/04 02:31:57;;;;;;;;;;;;;;;18.52;22.99;97983.19;5026195;28;20019;-88
2023/03/04 02:34:26;;;;;;;;;;;;;;;18.71;22.56;97991.13;5029448;28;19921;-89
2023/03/04 02:36:53;;;;;;;;;;;;;;;19.45;22.32;97995.66;5009918;28;19921;-88
2023/03/04 02:39:19;;;;;;;;;;;;;;;20.29;21.11;97994.38;5027870;28;19925;-89
2023/03/04 02:41:50;;;;;;;;;;;;;;;20.68;20.59;97994.81;5027666;28;19921;-89
2023/03/04 02:44:18;;;;;;;;;;;;;;;20.48;21.00;97989.03;5013759;28;20331;-90
2023/03/04 02:46:44;;;;;;;;;;;;;;;19.47;22.32;97990.47;5029107;28;19929;-90
2023/03/04 02:49:10;;;;;;;;;;;;;;;19.80;21.32;97995.47;5013561;28;19921;-90
2023/03/04 02:51:36;;;;;;;;;;;;;;;20.12;21.49;97990.47;5037770;28;19921;-90
2023/03/04 02:54:03;;;;;;;;;;;;;;;20.86;20.70;97978.72;5033771;28;19930;-90
2023/03/04 02:56:29;;;;;;;;;;;;;;;20.16;21.04;97982.91;5031183;28;20027;-90
2023/03/04 02:58:55;;;;;;;;;;;;;;;20.42;20.97;97978.75;5032673;28;19917;-90
2023/03/04 03:01:21;;;;;;;;;;;;;;;20.60;20.67;97968.22;5030353;28;19921;-89
2023/03/04 03:03:47;;;;;;;;;;;;;;;20.77;20.31;97952.50;5026912;28;19999;-90
2023/03/04 03:06:13;;;;;;;;;;;;;;;20.67;20.66;97954.19;5034015;28;19921;-90
2023/03/04 03:08:39;;;;;;;;;;;;;;;20.47;20.60;97953.16;5034563;28;20019;-90
2023/03/04 03:11:05;;;;;;;;;;;;;;;20.99;20.12;97945.47;5031848;28;20379;-90
2023/03/04 03:13:31;;;;;;;;;;;;;;;21.52;19.42;97942.03;5035595;28;19917;-91
2023/03/04 03:15:57;;;;;;;;;;;;;;;21.32;19.42;97934.31;5027078;28;19921;-90
2023/03/04 03:18:25;;;;;;;;;;;;;;;20.94;19.39;97935.53;5028513;28;19925;-91
2023/03/04 03:20:51;;;;;;;;;;;;;;;21.19;19.32;97930.47;5034774;28;19921;-90
2023/03/04 03:23:19;;;;;;;;;;;;;;;21.51;19.12;97929.28;5026470;28;19925;-90
2023/03/04 03:25:45;;;;;;;;;;;;;;;21.43;18.87;97927.78;5024028;28;19936;-91
2023/03/04 03:28:11;;;;;;;;;;;;;;;21.26;18.47;97924.81;5025601;28;20504;-91
2023/03/04 03:30:37;;;;;;;;;;;;;;;20.99;19.09;97923.94;5025189;28;20435;-91
2023/03/04 03:33:04;;;;;;;;;;;;;;;21.21;18.78;97916.88;5023757;28;19921;-91
2023/03/04 03:35:30;;;;;;;;;;;;;;;21.45;18.62;97917.00;5025811;28;19930;-91
2023/03/04 03:37:56;;;;;;;;;;;;;;;20.95;18.87;97914.00;5025715;28;19983;-91
2023/03/04 03:40:22;;;;;;;;;;;;;;;21.27;18.91;97915.22;5023442;28;19953;-90
2023/03/04 03:42:48;;;;;;;;;;;;;;;21.48;18.25;97914.13;5023942;28;20005;-89
2023/03/04 03:45:14;;;;;;;;;;;;;;;21.48;18.36;97908.56;5008775;28;19976;-89
2023/03/04 03:47:40;;;;;;;;;;;;;;;21.53;18.60;97910.88;5024025;28;20359;-89
2023/03/04 03:50:06;;;;;;;;;;;;;;;21.55;17.74;97910.44;5005504;28;20011;-89
2023/03/04 03:52:32;;;;;;;;;;;;;;;21.18;18.32;97914.94;5005847;28;20023;-90
2023/03/04 03:55:00;;;;;;;;;;;;;;;20.25;19.36;97927.50;5024759;28;19975;-90
2023/03/04 03:57:27;;;;;;;;;;;;;;;20.36;19.54;97928.19;5026423;28;20496;-87
2023/03/04 03:59:53;;;;;;;;;;;;;;;20.32;19.29;97927.44;5024093;28;20056;-88
2023/03/04 04:02:19;;;;;;;;;;;;;;;19.99;19.46;97930.88;5024650;28;20329;-88
2023/03/04 04:04:45;;;;;;;;;;;;;;;19.39;20.20;97936.84;5022487;28;19937;-88
2023/03/04 04:07:11;;;;;;;;;;;;;;;20.02;19.70;97933.63;5025548;28;19921;-88
2023/03/04 04:09:37;;;;;;;;;;;;;;;20.12;19.68;97928.41;5015727;28;19921;-89
2023/03/04 04:12:04;;;;;;;;;;;;;;;20.38;19.63;97922.19;5027299;28;20335;-88
2023/03/04 04:14:30;;;;;;;;;;;;;;;20.36;19.24;97913.44;5028531;28;19933;-88
2023/03/04 04:16:56;;;;;;;;;;;;;;;20.62;19.22;97904.44;5024855;28;19933;-88
2023/03/04 04:19:22;;;;;;;;;;;;;;;20.83;19.12;97901.41;5028702;28;19928;-89
2023/03/04 04:21:48;;;;;;;;;;;;;;;20.96;18.95;97896.84;5027578;28;19971;-89
2023/03/04 04:24:15;;;;;;;;;;;;;;;21.27;18.54;97901.25;5013748;28;20016;-89
2023/03/04 04:26:41;;;;;;;;;;;;;;;21.49;18.19;97900.97;5028016;28;19925;-89
2023/03/04 04:29:08;;;;;;;;;;;;;;;21.30;18.16;97906.03;5020724;28;19927;-89
2023/03/04 04:31:34;;;;;;;;;;;;;;;21.40;18.59;97897.91;5025726;28;19928;-89
2023/03/04 04:34:01;;;;;;;;;;;;;;;21.25;18.46;97884.13;5029819;28;19921;-89
2023/03/04 04:36:27;;;;;;;;;;;;;;;21.45;18.28;97889.06;5023439;28;20381;-90
2023/03/04 04:38:53;;;;;;;;;;;;;;;21.41;18.14;97893.88;5024162;28;19925;-86
2023/03/04 04:41:20;;;;;;;;;;;;;;;21.35;18.18;97897.16;5024627;28;19925;-87
2023/03/04 04:43:47;;;;;;;;;;;;;;;21.07;18.52;97899.53;5026454;28;19965;-88
2023/03/04 04:46:13;;;;;;;;;;;;;;;21.00;18.64;97899.59;5028106;28;19921;-87
2023/03/04 04:48:39;;;;;;;;;;;;;;;21.21;19.03;97888.97;5032629;28;19925;-88
2023/03/04 04:51:05;;;;;;;;;;;;;;;21.33;18.32;97896.00;5030903;28;19921;-88
2023/03/04 04:53:31;;;;;;;;;;;;;;;21.56;18.08;97895.28;5015074;28;19948;-88
2023/03/04 04:55:57;;;;;;;;;;;;;;;21.41;18.26;97891.09;5011492;28;20220;-87
2023/03/04 04:58:23;;;;;;;;;;;;;;;21.59;18.30;97886.84;5032259;28;19925;-87
2023/03/04 05:00:49;;;;;;;;;;;;;;;21.67;18.10;97881.94;5011482;28;19921;-87
2023/03/04 05:03:15;;;;;;;;;;;;;;;21.65;18.37;97890.75;5029633;28;20308;-88
2023/03/04 05:05:41;;;;;;;;;;;;;;;21.61;18.15;97880.84;5024239;28;19983;-87
2023/03/04 05:08:07;;;;;;;;;;;;;;;21.77;18.20;97879.00;5029505;28;20379;-87
2023/03/04 05:10:33;;;;;;;;;;;;;;;21.53;18.03;97879.34;5031321;28;19922;-87
2023/03/04 05:12:59;;;;;;;;;;;;;;;21.42;18.63;97876.72;5041169;28;19921;-87
2023/03/04 05:15:25;;;;;;;;;;;;;;;21.42;18.65;97873.94;5030935;28;20015;-88
2023/03/04 05:17:52;;;;;;;;;;;;;;;21.42;18.66;97873.94;5012883;28;20423;-88
2023/03/04 05:20:18;;;;;;;;;;;;;;;21.52;18.37;97875.75;5031985;28;19925;-88
2023/03/04 05:22:44;;;;;;;;;;;;;;;21.78;18.15;97885.34;5022205;28;19921;-89
2023/03/04 05:25:10;;;;;;;;;;;;;;;21.97;17.92;97876.28;5023354;28;19921;-89
2023/03/04 05:27:36;;;;;;;;;;;;;;;22.06;18.11;97881.31;5044506;28;20020;-88
2023/03/04 05:30:02;;;;;;;;;;;;;;;22.15;18.19;97882.34;5041187;28;20377;-88
2023/03/04 05:32:28;;;;;;;;;;;;;;;21.87;18.50;97882.84;5028702;28;19972;-89
2023/03/04 05:34:54;;;;;;;;;;;;;;;21.80;18.46;97894.88;5026115;28;19925;-90
2023/03/04 05:37:20;;;;;;;;;;;;;;;21.21;18.96;97885.41;5023551;28;19932;-90
2023/03/04 05:39:46;;;;;;;;;;;;;;;21.30;19.23;97888.47;5021846;28;20351;-88
2023/03/04 05:42:12;;;;;;;;;;;;;;;21.42;19.32;97885.09;5024904;28;19968;-88
2023/03/04 05:44:38;;;;;;;;;;;;;;;21.67;19.23;97890.31;5026319;28;19929;-88
2023/03/04 05:47:04;;;;;;;;;;;;;;;21.77;19.12;97881.78;5026105;28;20286;-88
2023/03/04 05:49:30;;;;;;;;;;;;;;;21.71;18.95;97877.06;5025088;28;19921;-88
2023/03/04 05:51:56;;;;;;;;;;;;;;;21.78;19.42;97883.34;5025722;28;19921;-87
2023/03/04 05:54:22;;;;;;;;;;;;;;;21.95;18.74;97885.09;5022073;28;19968;-90
2023/03/04 05:56:48;;;;;;;;;;;;;;;21.52;19.22;97881.34;5024581;28;19936;-87
2023/03/04 05:59:19;;;;;;;;;;;;;;;21.53;19.41;97879.34;5023695;28;19929;-87
2023/03/04 06:01:45;;;;;;;;;;;;;;;20.27;20.92;97882.47;5004353;28;20300;-88
2023/03/04 06:04:12;;;;;;;;;;;;;;;20.65;20.67;97878.50;5021059;28;22239;-87
2023/03/04 06:06:38;;;;;;;;;;;;;;;20.79;20.38;97871.94;5012062;28;20459;-86
2023/03/04 06:09:03;;;;;;;;;;;;;;;19.62;21.40;97875.03;5025904;28;19918;-87
2023/03/04 06:11:29;;;;;;;;;;;;;;;17.04;25.17;97883.00;5030004;28;19983;-86
2023/03/04 06:13:55;;;;;;;;;;;;;;;18.21;23.45;97872.81;5028746;28;19968;-88
2023/03/04 06:16:21;;;;;;;;;;;;;;;18.31;23.71;97875.59;5025049;28;19925;-93
2023/03/04 06:18:47;;;;;;;;;;;;;;;17.67;24.31;97880.41;5021688;28;19921;-88
2023/03/04 06:21:13;;;;;;;;;;;;;;;17.94;24.00;97884.38;5025377;28;19928;-87
2023/03/04 06:23:40;;;;;;;;;;;;;;;19.52;22.30;97879.47;5029827;28;20305;-89
2023/03/04 06:26:10;;;;;;;;;;;;;;;17.33;24.90;97870.03;5023605;28;19920;-88
2023/03/04 06:28:36;;;;;;;;;;;;;;;17.93;23.80;97871.69;5022524;28;19921;-87
2023/03/04 06:31:03;;;;;;;;;;;;;;;19.16;23.28;97876.09;5027702;28;20278;-88
2023/03/04 06:33:29;;;;;;;;;;;;;;;18.28;23.64;97872.81;5033808;28;19964;-88
2023/03/04 06:35:55;;;;;;;;;;;;;;;17.39;24.95;97872.00;5030244;28;19936;-88
2023/03/04 06:38:22;;;;;;;;;;;;;;;16.63;25.65;97881.69;5028146;28;19917;-88
2023/03/04 06:40:48;;;;;;;;;;;;;;;16.63;25.96;97885.25;5037830;28;19932;-90
2023/03/04 06:43:14;;;;;;;;;;;;;;;16.93;25.47;97888.53;5037156;28;20292;-88
2023/03/04 06:45:40;;;;;;;;;;;;;;;17.74;24.47;97887.94;5034322;28;19921;-88
2023/03/04 06:48:06;;;;;;;;;;;;;;;18.21;23.54;97884.75;5031505;28;19932;-89
2023/03/04 06:50:32;;;;;;;;;;;;;;;18.39;23.63;97890.28;5033637;28;19925;-93
2023/03/04 06:52:58;;;;;;;;;;;;;;;18.02;23.77;97896.25;5014506;28;19929;-90
2023/03/04 06:55:24;;;;;;;;;;;;;;;16.64;24.99;97892.38;5026188;28;20420;-88
2023/03/04 06:57:50;;;;;;;;;;;;;;;16.31;26.15;97906.41;5030481;28;19921;-93
2023/03/04 07:00:17;;;;;;;;;;;;;;;18.58;23.47;97896.19;5014068;28;19925;-89
2023/03/04 07:02:43;;;;;;;;;;;;;;;17.67;24.18;97891.50;5027570;28;19925;-87
2023/03/04 07:05:09;;;;;;;;;;;;;;;19.28;22.74;97883.19;5025659;28;19928;-92
2023/03/04 07:07:35;;;;;;;;;;;;;;;18.67;22.96;97886.66;5028103;28;19928;-86
2023/03/04 07:10:02;;;;;;;;;;;;;;;19.37;22.04;97888.34;5022889;28;19927;-86
2023/03/04 07:12:28;;;;;;;;;;;;;;;19.57;22.42;97883.81;5025709;28;19941;-86
2023/03/04 07:14:54;;;;;;;;;;;;;;;17.74;24.54;97883.19;5029010;28;19921;-89
2023/03/04 07:17:20;;;;;;;;;;;;;;;18.83;22.71;97884.22;5017939;28;19962;-90
2023/03/04 07:19:46;;;;;;;;;;;;;;;18.99;23.01;97893.69;5032539;28;20435;-87
2023/03/04 07:22:12;;;;;;;;;;;;;;;18.69;23.26;97889.81;5029258;28;19921;-86
2023/03/04 07:24:38;;;;;;;;;;;;;;;18.51;23.10;97881.53;5024129;28;20019;-87
2023/03/04 07:27:04;;;;;;;;;;;;;;;18.89;23.27;97880.59;5015742;28;19918;-86
2023/03/04 07:29:30;;;;;;;;;;;;;;;18.61;23.38;97880.69;5027261;28;19925;-89
2023/03/04 07:31:56;;;;;;;;;;;;;;;19.87;21.90;97887.59;5023635;28;19928;-86
2023/03/04 07:34:22;;;;;;;;;;;;;;;19.10;22.33;97888.84;5028145;28;19928;-89
2023/03/04 07:36:48;;;;;;;;;;;;;;;20.13;21.85;97885.38;5025540;28;20388;-93
2023/03/04 07:39:15;;;;;;;;;;;;;;;18.05;24.20;97883.56;5005946;28;19921;-92
2023/03/04 07:41:41;;;;;;;;;;;;;;;17.20;24.84;97889.81;5014313;28;19951;-92
2023/03/04 07:44:13;;;;;;;;;;;;;;;17.08;24.63;97894.94;5031575;28;19932;-91
2023/03/04 07:46:39;;;;;;;;;;;;;;;14.83;27.93;97897.50;5024684;28;20004;-93
2023/03/04 07:49:06;;;;;;;;;;;;;;;15.04;27.64;97900.53;5019949;28;19933;-94
2023/03/04 07:51:33;;;;;;;;;;;;;;;16.19;26.10;97898.41;5033799;28;19925;-92
2023/03/04 07:54:00;;;;;;;;;;;;;;;16.68;25.72;97903.47;5030109;28;19925;-93
2023/03/04 07:56:30;;;;;;;;;;;;;;;17.24;25.06;97918.38;5029614;28;19924;-92
2023/03/04 07:58:56;;;;;;;;;;;;;;;17.84;23.96;97907.38;5034340;28;19923;-92
2023/03/04 08:01:24;;;;;;;;;;;;;;;18.35;23.58;97908.94;5034422;28;19991;-93
2023/03/04 08:03:50;;;;;;;;;;;;;;;16.88;25.37;97915.84;5025426;28;19917;-91
2023/03/04 08:06:18;;;;;;;;;;;;;;;17.73;24.29;97914.94;5026108;28;20022;-90
2023/03/04 08:08:44;;;;;;;;;;;;;;;16.90;25.14;97914.28;5030407;28;19925;-91
2023/03/04 08:11:15;;;;;;;;;;;;;;;17.22;24.57;97917.94;5031677;28;19960;-91
2023/03/04 08:13:41;;;;;;;;;;;;;;;15.75;26.77;97934.47;5027758;28;20274;-91
2023/03/04 08:16:10;;;;;;;;;;;;;;;14.11;30.11;97943.84;5013283;28;19924;-91
2023/03/04 08:18:38;;;;;;;;;;;;;;;12.61;32.34;97934.28;5030653;28;19928;-90
2023/03/04 08:21:07;;;;;;;;;;;;;;;11.59;33.76;97938.19;5012724;28;19921;-88
2023/03/04 08:23:33;;;;;;;;;;;;;;;13.22;31.40;97935.19;5024879;28;19932;-90
2023/03/04 08:25:59;;;;;;;;;;;;;;;12.56;32.28;97929.88;5019293;28;19921;-90
2023/03/04 08:28:25;;;;;;;;;;;;;;;11.84;33.32;97931.38;5028429;28;19929;-84
2023/03/04 08:30:52;;;;;;;;;;;;;;;13.42;31.28;97942.25;5022472;28;20439;-83
2023/03/04 08:33:18;;;;;;;;;;;;;;;13.40;30.80;97938.25;5029842;28;20412;-85
2023/03/04 08:35:44;;;;;;;;;;;;;;;14.60;28.58;97934.69;5009308;28;20316;-86
2023/03/04 08:38:10;;;;;;;;;;;;;;;14.24;28.86;97938.88;5032331;28;19921;-86
2023/03/04 08:40:36;;;;;;;;;;;;;;;15.60;27.32;97943.81;5019332;28;19921;-87
2023/03/04 08:43:02;;;;;;;;;;;;;;;14.87;28.56;97939.00;5022007;28;19927;-86
2023/03/04 08:45:28;;;;;;;;;;;;;;;13.60;30.11;97954.41;5030771;28;19925;-85
2023/03/04 08:47:55;;;;;;;;;;;;;;;12.60;31.97;97957.50;5028045;28;19928;-85
2023/03/04 08:50:21;;;;;;;;;;;;;;;13.89;30.05;97952.91;5026401;28;19922;-85
2023/03/04 08:52:47;;;;;;;;;;;;;;;14.89;28.36;97961.56;5019352;28;19983;-85
2023/03/04 08:55:13;;;;;;;;;;;;;;;13.98;29.44;97949.94;5030751;28;20007;-86
2023/03/04 08:57:39;;;;;;;;;;;;;;;15.14;28.62;97959.88;5028419;28;19922;-85
2023/03/04 09:00:05;;;;;;;;;;;;;;;14.81;28.98;97946.03;5022114;28;19965;-85
2023/03/04 09:02:31;;;;;;;;;;;;;;;14.30;29.38;97952.06;5029322;28;19929;-85
2023/03/04 09:04:58;;;;;;;;;;;;;;;17.13;25.87;97950.81;5041739;28;20266;-89
2023/03/04 09:07:24;;;;;;;;;;;;;;;15.50;27.16;97959.13;5031213;28;19925;-87
2023/03/04 09:09:50;;;;;;;;;;;;;;;15.89;26.72;97957.50;5003948;28;19921;-87
2023/03/04 09:12:16;;;;;;;;;;;;;;;15.00;27.86;97954.19;5015024;28;20289;-86
2023/03/04 09:14:42;;;;;;;;;;;;;;;15.25;27.13;97955.25;5021470;28;19933;-87
2023/03/04 09:17:08;;;;;;;;;;;;;;;15.01;28.40;97945.50;5020172;28;19932;-89
2023/03/04 09:19:34;;;;;;;;;;;;;;;15.52;27.33;97956.00;5024942;28;20389;-91
2023/03/04 09:22:01;;;;;;;;;;;;;;;16.05;26.69;97950.94;5022032;28;20300;-89
2023/03/04 09:24:27;;;;;;;;;;;;;;;16.77;26.11;97949.06;5007050;28;19963;-94
2023/03/04 09:26:53;;;;;;;;;;;;;;;17.24;25.00;97954.44;5033773;28;19984;-93
2023/03/04 09:29:20;;;;;;;;;;;;;;;18.05;24.49;97937.16;5029041;28;20632;-91
2023/03/04 09:31:46;;;;;;;;;;;;;;;18.50;23.56;97941.91;5005425;28;19935;-90
2023/03/04 09:34:12;;;;;;;;;;;;;;;18.42;24.03;97953.38;5026561;28;19933;-88
2023/03/04 09:36:39;;;;;;;;;;;;;;;16.21;25.83;97957.00;5027869;28;19956;-90
2023/03/04 09:39:05;;;;;;;;;;;;;;;15.81;26.58;97949.53;5029135;28;19921;-89
2023/03/04 09:41:44;;;;;;;;;;;;;;;14.69;28.22;97958.13;5028523;28;19932;-88
2023/03/04 09:44:17;;;;;;;;;;;;;;;13.90;30.09;97968.31;5031337;28;19967;-87
2023/03/04 09:46:44;;;;;;;;;;;;;;;15.17;27.64;97972.94;5022114;28;19921;-90
2023/03/04 09:49:11;;;;;;;;;;;;;;;15.24;27.44;97950.88;5026232;28;19921;-86
2023/03/04 09:51:55;;;;;;;;;;;;;;;14.51;29.03;97948.78;5008374;28;19975;-89
2023/03/04 09:54:40;;;;;;;;;;;;;;;16.02;26.70;97955.25;5029469;28;19921;-89
2023/03/04 09:57:18;;;;;;;;;;;;;;;15.23;26.91;97905.88;5011189;28;20385;-89
2023/03/04 09:59:49;;;;;;;;;;;;;;;13.40;30.34;97943.78;5027873;28;19933;-88
2023/03/04 10:02:21;;;;;;;;;;;;;;;15.68;27.47;97924.09;5026447;28;19921;-87
2023/03/04 10:04:50;;;;;;;;;;;;;;;14.29;28.17;97924.75;5036072;28;19921;-89
2023/03/04 10:07:22;;;;;;;;;;;;;;;14.06;29.64;97929.53;5029524;28;19933;-86
2023/03/04 10:09:54;;;;;;;;;;;;;;;13.58;30.22;97931.91;5017402;28;19925;-87
2023/03/04 10:12:23;;;;;;;;;;;;;;;14.10;29.66;97922.09;5029482;28;19921;-90
2023/03/04 10:14:51;;;;;;;;;;;;;;;15.81;26.71;97919.09;5032026;28;19928;-89
2023/03/04 10:17:22;;;;;;;;;;;;;;;15.48;26.52;97916.41;5039846;28;20262;-88
2023/03/04 10:20:01;;;;;;;;;;;;;;;16.00;26.78;97915.28;5017979;28;19925;-89
2023/03/04 10:22:45;;;;;;;;;;;;;;;15.45;26.71;97914.41;5029002;28;20284;-88
2023/03/04 10:25:20;;;;;;;;;;;;;;;15.03;27.90;97923.78;5019289;28;19921;-89
2023/03/04 10:27:51;;;;;;;;;;;;;;;14.05;29.68;97917.69;5035991;28;20342;-88
2023/03/04 10:30:20;;;;;;;;;;;;;;;14.80;27.50;97908.50;5026851;28;19940;-89
2023/03/04 10:32:46;;;;;;;;;;;;;;;15.43;28.17;97916.72;5030744;28;19925;-90
2023/03/04 10:35:12;;;;;;;;;;;;;;;16.24;26.19;97920.22;5026104;28;19967;-90
2023/03/04 10:37:42;;;;;;;;;;;;;;;15.35;27.60;97879.91;5032136;28;20351;-89
2023/03/04 10:40:17;;;;;;;;;;;;;;;15.39;28.07;97908.41;5031931;28;20393;-88
2023/03/04 10:42:47;;;;;;;;;;;;;;;14.69;28.79;97893.75;5033758;28;19968;-89
2023/03/04 10:45:34;;;;;;;;;;;;;;;14.26;30.32;97903.44;5028142;28;19980;-88
2023/03/04 10:48:01;;;;;;;;;;;;;;;14.13;29.76;97910.31;5028489;28;20359;-89
2023/03/04 10:50:27;;;;;;;;;;;;;;;15.89;27.11;97902.16;5016918;28;20294;-89
2023/03/04 10:52:54;;;;;;;;;;;;;;;15.66;27.54;97898.03;5030461;28;19921;-89
2023/03/04 10:55:23;;;;;;;;;;;;;;;16.32;26.61;97867.25;5028599;28;19936;-89
2023/03/04 10:57:52;;;;;;;;;;;;;;;17.05;25.57;97879.06;5035794;28;20011;-89
2023/03/04 11:00:37;;;;;;;;;;;;;;;16.03;26.44;97882.09;5032312;28;20196;-88
2023/03/04 11:03:21;;;;;;;;;;;;;;;15.17;27.73;97887.22;5023240;28;19971;-89
2023/03/04 11:05:47;;;;;;;;;;;;;;;14.32;29.56;97886.19;5013763;28;19921;-89
2023/03/04 11:08:21;;;;;;;;;;;;;;;15.62;27.73;97886.91;5028172;28;19917;-89
2023/03/04 11:10:48;;;;;;;;;;;;;;;17.12;25.23;97876.31;5030641;28;20292;-90
2023/03/04 11:13:18;;;;;;;;;;;;;;;15.38;28.06;97889.41;5024261;28;20474;-89
2023/03/04 11:15:51;;;;;;;;;;;;;;;16.25;25.82;97880.25;5027072;28;19922;-88
2023/03/04 11:18:22;;;;;;;;;;;;;;;16.84;25.50;97882.56;5023013;28;19917;-88
2023/03/04 11:20:49;;;;;;;;;;;;;;;16.76;26.21;97874.59;5031917;28;20728;-89
2023/03/04 11:23:25;;;;;;;;;;;;;;;16.76;26.41;97871.81;5027248;28;19921;-89
2023/03/04 11:26:14;;;;;;;;;;;;;;;16.76;26.03;97878.16;5024016;28;19921;-87
2023/03/04 11:28:55;;;;;;;;;;;;;;;16.97;25.84;97877.44;5023025;28;19925;-88
2023/03/04 11:31:41;;;;;;;;;;;;;;;18.03;24.16;97866.50;5023546;28;20023;-87
2023/03/04 11:34:13;;;;;;;;;;;;;;;19.11;22.60;97865.38;5027673;28;19921;-87
2023/03/04 11:37:14;;;;;;;;;;;;;;;18.92;23.17;97848.41;5008319;28;19925;-91
2023/03/04 11:39:45;;;;;;;;;;;;;;;17.82;24.25;97858.97;4989926;28;19925;-86
2023/03/04 11:42:20;;;;;;;;;;;;;;;17.11;25.14;97844.22;5017205;28;19925;-88
2023/03/04 11:44:46;;;;;;;;;;;;;;;16.41;26.90;97853.81;5028404;28;19956;-90
2023/03/04 11:47:24;;;;;;;;;;;;;;;17.35;25.53;97846.25;5028634;28;20432;-90
2023/03/04 11:49:59;;;;;;;;;;;;;;;17.65;25.44;97846.69;5020139;28;19921;-89
2023/03/04 11:52:25;;;;;;;;;;;;;;;16.74;25.61;97847.28;5027986;28;19917;-90
2023/03/04 11:55:06;;;;;;;;;;;;;;;16.79;26.26;97841.34;5029815;28;19957;-96
2023/03/04 11:57:35;;;;;;;;;;;;;;;17.92;25.00;97847.84;5029793;28;19964;-87
2023/03/04 12:00:20;;;;;;;;;;;;;;;17.42;25.64;97843.47;5025690;28;19924;-88
2023/03/04 12:02:55;;;;;;;;;;;;;;;18.61;24.47;97825.09;5013091;28;19972;-88
2023/03/04 12:05:24;;;;;;;;;;;;;;;17.01;25.69;97829.13;5024426;28;19917;-88
2023/03/04 12:08:13;;;;;;;;;;;;;;;16.91;26.70;97813.28;5021948;28;19928;-89
2023/03/04 12:11:08;;;;;;;;;;;;;;;17.34;24.87;97816.13;5015962;28;19979;-88
2023/03/04 12:13:37;;;;;;;;;;;;;;;18.13;24.87;97815.69;5019285;28;19921;-87
2023/03/04 12:16:09;;;;;;;;;;;;;;;17.05;25.60;97823.59;5021756;28;19979;-87
2023/03/04 12:18:38;;;;;;;;;;;;;;;17.66;25.17;97814.16;5015175;28;20455;-87
2023/03/04 12:21:14;;;;;;;;;;;;;;;18.02;24.96;97814.94;5014486;28;19921;-86
2023/03/04 12:23:55;;;;;;;;;;;;;;;17.45;25.60;97814.13;5030721;28;19983;-86
2023/03/04 12:26:39;;;;;;;;;;;;;;;16.64;26.95;97823.06;5032014;28;19917;-86
2023/03/04 12:29:22;;;;;;;;;;;;;;;15.54;29.68;97815.28;5026936;28;20652;-89
2023/03/04 12:32:02;;;;;;;;;;;;;;;17.22;27.04;97818.06;5024896;28;19934;-89
2023/03/04 12:34:37;;;;;;;;;;;;;;;17.02;26.60;97808.53;5025050;28;19921;-89
2023/03/04 12:37:21;;;;;;;;;;;;;;;17.62;25.87;97803.06;5022423;28;19971;-88
2023/03/04 12:39:54;;;;;;;;;;;;;;;16.29;26.95;97814.59;5037255;28;19928;-89
2023/03/04 12:42:29;;;;;;;;;;;;;;;15.65;28.00;97797.59;5020510;28;19976;-88
2023/03/04 12:44:55;;;;;;;;;;;;;;;17.50;25.74;97809.00;5030663;28;19921;-89
2023/03/04 12:47:24;;;;;;;;;;;;;;;17.83;25.66;97797.47;5025591;28;19990;-89
2023/03/04 12:50:08;;;;;;;;;;;;;;;16.95;26.39;97802.19;5026034;28;20024;-90
2023/03/04 12:52:43;;;;;;;;;;;;;;;17.31;25.58;97797.47;5026354;28;19968;-89